sensor_id;sensor_type;location;lat;lon;timestamp;temperature;humidity
16321;DHT22;8269;50.990;4.494;2023-05-10T00:01:07;12.90;99.90
16321;DHT22;8269;50.990;4.494;2023-05-10T00:03:33;12.80;99.90
16321;DHT22;8269;50.990;4.494;2023-05-10T00:05:59;12.80;99.90
16321;DHT22;8269;50.990;4.494;2023-05-10T00:08:25;12.80;99.90
16321;DHT22;8269;50.990;4.494;2023-05-10T00:10:51;12.80;99.90
16321;DHT22;8269;50.990;4.494;2023-05-10T00:13:17;12.80;99.90
16321;DHT22;8269;50.990;4.494;2023-05-10T00:15:43;12.80;99.90
16321;DHT22;8269;50.990;4.494;2023-05-10T00:18:08;12.80;99.90
16321;DHT22;8269;50.990;4.494;2023-05-10T00:20:34;12.80;99.90
16321;DHT22;8269;50.990;4.494;2023-05-10T00:22:59;12.70;99.90
16321;DHT22;8269;50.990;4.494;2023-05-10T00:25:25;12.70;99.90
16321;DHT22;8269;50.990;4.494;2023-05-10T00:27:51;12.70;99.90
16321;DHT22;8269;50.990;4.494;2023-05-10T00:30:17;12.70;99.90
16321;DHT22;8269;50.990;4.494;2023-05-10T00:32:43;12.70;99.90
16321;DHT22;8269;50.990;4.494;2023-05-10T00:35:09;12.70;99.90
16321;DHT22;8269;50.990;4.494;2023-05-10T00:37:35;12.70;99.90
16321;DHT22;8269;50.990;4.494;2023-05-10T00:40:00;12.70;99.90
16321;DHT22;8269;50.990;4.494;2023-05-10T00:42:26;12.70;99.90
16321;DHT22;8269;50.990;4.494;2023-05-10T00:44:52;12.70;99.90
16321;DHT22;8269;50.990;4.494;2023-05-10T00:47:17;12.70;99.90
16321;DHT22;8269;50.990;4.494;2023-05-10T00:49:43;12.60;99.90
16321;DHT22;8269;50.990;4.494;2023-05-10T00:52:10;12.60;99.90
16321;DHT22;8269;50.990;4.494;2023-05-10T00:54:35;12.60;99.90
16321;DHT22;8269;50.990;4.494;2023-05-10T00:57:01;12.60;99.90
16321;DHT22;8269;50.990;4.494;2023-05-10T00:59:29;12.60;99.90
16321;DHT22;8269;50.990;4.494;2023-05-10T01:01:54;12.60;99.90
16321;DHT22;8269;50.990;4.494;2023-05-10T01:04:20;12.60;99.90
16321;DHT22;8269;50.990;4.494;2023-05-10T01:06:52;12.60;99.90
16321;DHT22;8269;50.990;4.494;2023-05-10T01:09:19;12.60;99.90
16321;DHT22;8269;50.990;4.494;2023-05-10T01:11:45;12.60;99.90
16321;DHT22;8269;50.990;4.494;2023-05-10T01:14:11;12.70;99.90
16321;DHT22;8269;50.990;4.494;2023-05-10T01:16:38;12.60;99.90
16321;DHT22;8269;50.990;4.494;2023-05-10T01:19:15;12.60;99.90
16321;DHT22;8269;50.990;4.494;2023-05-10T01:27:25;12.60;99.90
16321;DHT22;8269;50.990;4.494;2023-05-10T01:30:08;12.60;99.90
16321;DHT22;8269;50.990;4.494;2023-05-10T01:32:43;12.60;99.90
16321;DHT22;8269;50.990;4.494;2023-05-10T01:35:26;12.60;99.90
16321;DHT22;8269;50.990;4.494;2023-05-10T01:41:01;12.60;99.90
16321;DHT22;8269;50.990;4.494;2023-05-10T01:43:38;12.50;99.90
16321;DHT22;8269;50.990;4.494;2023-05-10T01:46:09;12.50;99.90
16321;DHT22;8269;50.990;4.494;2023-05-10T01:48:42;12.50;99.90
16321;DHT22;8269;50.990;4.494;2023-05-10T01:51:14;12.50;99.90
16321;DHT22;8269;50.990;4.494;2023-05-10T01:53:42;12.50;99.90
16321;DHT22;8269;50.990;4.494;2023-05-10T01:56:11;12.50;99.90
16321;DHT22;8269;50.990;4.494;2023-05-10T01:58:39;12.50;99.90
16321;DHT22;8269;50.990;4.494;2023-05-10T02:01:08;12.50;99.90
16321;DHT22;8269;50.990;4.494;2023-05-10T02:03:37;12.50;99.90
16321;DHT22;8269;50.990;4.494;2023-05-10T02:06:04;12.50;99.90
16321;DHT22;8269;50.990;4.494;2023-05-10T02:08:32;12.50;99.90
16321;DHT22;8269;50.990;4.494;2023-05-10T02:10:58;12.50;99.90
16321;DHT22;8269;50.990;4.494;2023-05-10T02:13:25;12.50;99.90
16321;DHT22;8269;50.990;4.494;2023-05-10T02:15:53;12.50;99.90
16321;DHT22;8269;50.990;4.494;2023-05-10T02:18:20;12.50;99.90
16321;DHT22;8269;50.990;4.494;2023-05-10T02:20:47;12.50;99.90
16321;DHT22;8269;50.990;4.494;2023-05-10T02:23:14;12.50;99.90
16321;DHT22;8269;50.990;4.494;2023-05-10T02:25:43;12.50;99.90
16321;DHT22;8269;50.990;4.494;2023-05-10T02:28:10;12.50;99.90
16321;DHT22;8269;50.990;4.494;2023-05-10T02:30:37;12.50;99.90
16321;DHT22;8269;50.990;4.494;2023-05-10T02:33:05;12.50;99.90
16321;DHT22;8269;50.990;4.494;2023-05-10T02:35:32;12.50;99.90
16321;DHT22;8269;50.990;4.494;2023-05-10T02:37:59;12.50;99.90
16321;DHT22;8269;50.990;4.494;2023-05-10T02:40:25;12.50;99.90
16321;DHT22;8269;50.990;4.494;2023-05-10T02:42:54;12.50;99.90
16321;DHT22;8269;50.990;4.494;2023-05-10T02:45:24;12.50;99.90
16321;DHT22;8269;50.990;4.494;2023-05-10T02:47:51;12.60;99.90
16321;DHT22;8269;50.990;4.494;2023-05-10T02:50:18;12.60;99.90
16321;DHT22;8269;50.990;4.494;2023-05-10T02:52:46;12.60;99.90
16321;DHT22;8269;50.990;4.494;2023-05-10T02:55:14;12.60;99.90
16321;DHT22;8269;50.990;4.494;2023-05-10T02:57:46;12.60;99.90
16321;DHT22;8269;50.990;4.494;2023-05-10T03:00:14;12.60;99.90
16321;DHT22;8269;50.990;4.494;2023-05-10T03:02:40;12.60;99.90
16321;DHT22;8269;50.990;4.494;2023-05-10T03:05:06;12.70;99.90
16321;DHT22;8269;50.990;4.494;2023-05-10T03:07:33;12.70;99.90
16321;DHT22;8269;50.990;4.494;2023-05-10T03:09:59;12.60;99.90
16321;DHT22;8269;50.990;4.494;2023-05-10T03:15:33;12.60;99.90
16321;DHT22;8269;50.990;4.494;2023-05-10T03:18:06;12.60;99.90
16321;DHT22;8269;50.990;4.494;2023-05-10T03:20:46;12.60;99.90
16321;DHT22;8269;50.990;4.494;2023-05-10T03:23:43;12.70;99.90
16321;DHT22;8269;50.990;4.494;2023-05-10T03:26:14;12.70;99.90
16321;DHT22;8269;50.990;4.494;2023-05-10T03:28:41;12.60;99.90
16321;DHT22;8269;50.990;4.494;2023-05-10T03:31:07;12.60;99.90
16321;DHT22;8269;50.990;4.494;2023-05-10T03:33:33;12.60;99.90
16321;DHT22;8269;50.990;4.494;2023-05-10T03:36:00;12.60;99.90
16321;DHT22;8269;50.990;4.494;2023-05-10T03:38:25;12.60;99.90
16321;DHT22;8269;50.990;4.494;2023-05-10T03:40:51;12.60;99.90
16321;DHT22;8269;50.990;4.494;2023-05-10T03:43:17;12.60;99.90
16321;DHT22;8269;50.990;4.494;2023-05-10T03:45:42;12.60;99.90
16321;DHT22;8269;50.990;4.494;2023-05-10T03:48:08;12.50;99.90
16321;DHT22;8269;50.990;4.494;2023-05-10T03:50:33;12.40;99.90
16321;DHT22;8269;50.990;4.494;2023-05-10T03:52:59;12.50;99.90
16321;DHT22;8269;50.990;4.494;2023-05-10T03:55:25;12.50;99.90
16321;DHT22;8269;50.990;4.494;2023-05-10T03:57:50;12.50;99.90
16321;DHT22;8269;50.990;4.494;2023-05-10T04:00:16;12.50;99.90
16321;DHT22;8269;50.990;4.494;2023-05-10T04:02:42;12.50;99.90
16321;DHT22;8269;50.990;4.494;2023-05-10T04:05:08;12.40;99.90
16321;DHT22;8269;50.990;4.494;2023-05-10T04:07:34;12.40;99.90
16321;DHT22;8269;50.990;4.494;2023-05-10T04:09:59;12.40;99.90
16321;DHT22;8269;50.990;4.494;2023-05-10T04:12:25;12.40;99.90
16321;DHT22;8269;50.990;4.494;2023-05-10T04:14:51;12.40;99.90
16321;DHT22;8269;50.990;4.494;2023-05-10T04:17:16;12.40;99.90
16321;DHT22;8269;50.990;4.494;2023-05-10T04:19:42;12.40;99.90
16321;DHT22;8269;50.990;4.494;2023-05-10T04:22:08;12.40;99.90
16321;DHT22;8269;50.990;4.494;2023-05-10T04:24:33;12.40;99.90
16321;DHT22;8269;50.990;4.494;2023-05-10T04:26:59;12.40;99.90
16321;DHT22;8269;50.990;4.494;2023-05-10T04:29:25;12.40;99.90
16321;DHT22;8269;50.990;4.494;2023-05-10T04:31:51;12.40;99.90
16321;DHT22;8269;50.990;4.494;2023-05-10T04:34:16;12.30;99.90
16321;DHT22;8269;50.990;4.494;2023-05-10T04:36:42;12.30;99.90
16321;DHT22;8269;50.990;4.494;2023-05-10T04:39:08;12.40;99.90
16321;DHT22;8269;50.990;4.494;2023-05-10T04:41:35;12.40;99.90
16321;DHT22;8269;50.990;4.494;2023-05-10T04:44:00;12.40;99.90
16321;DHT22;8269;50.990;4.494;2023-05-10T04:46:26;12.40;99.90
16321;DHT22;8269;50.990;4.494;2023-05-10T04:48:51;12.40;99.90
16321;DHT22;8269;50.990;4.494;2023-05-10T04:51:17;12.40;99.90
16321;DHT22;8269;50.990;4.494;2023-05-10T04:53:43;12.50;99.90
16321;DHT22;8269;50.990;4.494;2023-05-10T04:56:08;12.50;99.90
16321;DHT22;8269;50.990;4.494;2023-05-10T04:58:34;12.50;99.90
16321;DHT22;8269;50.990;4.494;2023-05-10T05:01:06;12.50;99.90
16321;DHT22;8269;50.990;4.494;2023-05-10T05:03:33;12.50;99.90
16321;DHT22;8269;50.990;4.494;2023-05-10T05:05:59;12.50;99.90
16321;DHT22;8269;50.990;4.494;2023-05-10T05:08:24;12.50;99.90
16321;DHT22;8269;50.990;4.494;2023-05-10T05:10:50;12.50;99.90
16321;DHT22;8269;50.990;4.494;2023-05-10T05:13:16;12.60;99.90
16321;DHT22;8269;50.990;4.494;2023-05-10T05:15:42;12.60;99.90
16321;DHT22;8269;50.990;4.494;2023-05-10T05:18:07;12.60;99.90
16321;DHT22;8269;50.990;4.494;2023-05-10T05:20:33;12.70;99.90
16321;DHT22;8269;50.990;4.494;2023-05-10T05:23:00;12.80;99.90
16321;DHT22;8269;50.990;4.494;2023-05-10T05:25:25;12.80;99.90
16321;DHT22;8269;50.990;4.494;2023-05-10T06:14:10;13.60;99.90
16321;DHT22;8269;50.990;4.494;2023-05-10T06:16:36;13.70;99.90
16321;DHT22;8269;50.990;4.494;2023-05-10T06:19:02;13.70;99.90
16321;DHT22;8269;50.990;4.494;2023-05-10T06:21:28;13.70;99.90
16321;DHT22;8269;50.990;4.494;2023-05-10T06:23:54;13.70;99.90
16321;DHT22;8269;50.990;4.494;2023-05-10T06:26:19;13.70;99.90
16321;DHT22;8269;50.990;4.494;2023-05-10T06:28:46;13.80;99.90
16321;DHT22;8269;50.990;4.494;2023-05-10T06:31:11;13.80;99.90
16321;DHT22;8269;50.990;4.494;2023-05-10T06:33:37;13.90;99.90
16321;DHT22;8269;50.990;4.494;2023-05-10T06:36:03;13.90;99.90
16321;DHT22;8269;50.990;4.494;2023-05-10T06:38:29;13.90;99.90
16321;DHT22;8269;50.990;4.494;2023-05-10T06:40:54;13.90;99.90
16321;DHT22;8269;50.990;4.494;2023-05-10T06:43:20;14.00;99.90
16321;DHT22;8269;50.990;4.494;2023-05-10T06:45:47;14.00;99.90
16321;DHT22;8269;50.990;4.494;2023-05-10T06:48:13;14.00;99.90
16321;DHT22;8269;50.990;4.494;2023-05-10T06:50:38;14.10;99.90
16321;DHT22;8269;50.990;4.494;2023-05-10T06:53:04;14.10;99.90
16321;DHT22;8269;50.990;4.494;2023-05-10T06:55:29;14.10;99.90
16321;DHT22;8269;50.990;4.494;2023-05-10T06:57:55;14.20;99.90
16321;DHT22;8269;50.990;4.494;2023-05-10T07:00:21;14.10;99.90
16321;DHT22;8269;50.990;4.494;2023-05-10T07:02:47;14.20;99.90
16321;DHT22;8269;50.990;4.494;2023-05-10T07:05:13;14.20;99.90
16321;DHT22;8269;50.990;4.494;2023-05-10T07:07:39;14.10;99.90
16321;DHT22;8269;50.990;4.494;2023-05-10T07:10:05;14.00;99.90
16321;DHT22;8269;50.990;4.494;2023-05-10T07:12:31;14.10;99.90
16321;DHT22;8269;50.990;4.494;2023-05-10T07:14:57;14.10;99.90
16321;DHT22;8269;50.990;4.494;2023-05-10T07:17:23;14.10;99.90
16321;DHT22;8269;50.990;4.494;2023-05-10T07:19:49;14.00;99.90
16321;DHT22;8269;50.990;4.494;2023-05-10T07:22:15;14.00;99.90
16321;DHT22;8269;50.990;4.494;2023-05-10T07:24:41;14.00;99.90
16321;DHT22;8269;50.990;4.494;2023-05-10T07:27:06;14.00;99.90
16321;DHT22;8269;50.990;4.494;2023-05-10T07:29:32;13.90;99.90
16321;DHT22;8269;50.990;4.494;2023-05-10T07:31:58;13.80;99.90
16321;DHT22;8269;50.990;4.494;2023-05-10T07:34:24;13.70;99.90
16321;DHT22;8269;50.990;4.494;2023-05-10T07:36:49;13.70;99.90
16321;DHT22;8269;50.990;4.494;2023-05-10T07:39:15;13.70;99.90
16321;DHT22;8269;50.990;4.494;2023-05-10T07:41:42;13.80;99.90
16321;DHT22;8269;50.990;4.494;2023-05-10T07:44:07;13.90;99.90
16321;DHT22;8269;50.990;4.494;2023-05-10T07:46:33;14.00;99.90
16321;DHT22;8269;50.990;4.494;2023-05-10T07:48:59;14.00;99.90
16321;DHT22;8269;50.990;4.494;2023-05-10T07:51:24;13.90;99.90
16321;DHT22;8269;50.990;4.494;2023-05-10T07:53:50;14.00;99.90
16321;DHT22;8269;50.990;4.494;2023-05-10T07:56:24;14.10;99.90
16321;DHT22;8269;50.990;4.494;2023-05-10T07:58:51;14.30;99.90
16321;DHT22;8269;50.990;4.494;2023-05-10T08:01:18;14.40;99.90
16321;DHT22;8269;50.990;4.494;2023-05-10T08:03:45;14.50;99.90
16321;DHT22;8269;50.990;4.494;2023-05-10T08:06:10;14.50;99.90
16321;DHT22;8269;50.990;4.494;2023-05-10T08:08:36;14.50;99.90
16321;DHT22;8269;50.990;4.494;2023-05-10T08:11:03;14.50;99.90
16321;DHT22;8269;50.990;4.494;2023-05-10T08:13:28;14.40;99.90
16321;DHT22;8269;50.990;4.494;2023-05-10T08:15:54;14.50;99.90
16321;DHT22;8269;50.990;4.494;2023-05-10T08:18:19;14.70;99.90
16321;DHT22;8269;50.990;4.494;2023-05-10T08:20:45;14.80;99.90
16321;DHT22;8269;50.990;4.494;2023-05-10T08:23:14;15.00;99.90
16321;DHT22;8269;50.990;4.494;2023-05-10T08:25:40;15.00;99.90
16321;DHT22;8269;50.990;4.494;2023-05-10T08:28:06;15.00;99.90
16321;DHT22;8269;50.990;4.494;2023-05-10T08:30:31;15.00;99.90
16321;DHT22;8269;50.990;4.494;2023-05-10T08:32:57;15.00;99.90
16321;DHT22;8269;50.990;4.494;2023-05-10T08:35:22;15.00;99.90
16321;DHT22;8269;50.990;4.494;2023-05-10T08:37:48;15.00;99.90
16321;DHT22;8269;50.990;4.494;2023-05-10T08:40:14;15.00;99.90
16321;DHT22;8269;50.990;4.494;2023-05-10T08:42:44;14.90;99.90
16321;DHT22;8269;50.990;4.494;2023-05-10T08:45:11;15.00;99.90
16321;DHT22;8269;50.990;4.494;2023-05-10T08:47:37;15.00;99.90
16321;DHT22;8269;50.990;4.494;2023-05-10T08:50:04;15.00;99.90
16321;DHT22;8269;50.990;4.494;2023-05-10T08:52:33;14.90;99.90
16321;DHT22;8269;50.990;4.494;2023-05-10T08:55:00;14.70;99.90
16321;DHT22;8269;50.990;4.494;2023-05-10T08:57:26;14.60;99.90
16321;DHT22;8269;50.990;4.494;2023-05-10T08:59:52;14.40;99.90
16321;DHT22;8269;50.990;4.494;2023-05-10T09:02:19;14.30;99.90
16321;DHT22;8269;50.990;4.494;2023-05-10T09:04:45;14.20;99.90
16321;DHT22;8269;50.990;4.494;2023-05-10T09:07:11;14.30;99.90
16321;DHT22;8269;50.990;4.494;2023-05-10T09:09:38;14.30;99.90
16321;DHT22;8269;50.990;4.494;2023-05-10T09:12:03;14.50;99.90
16321;DHT22;8269;50.990;4.494;2023-05-10T09:14:30;14.70;99.90
16321;DHT22;8269;50.990;4.494;2023-05-10T09:17:01;14.60;99.90
16321;DHT22;8269;50.990;4.494;2023-05-10T09:19:27;14.50;99.90
16321;DHT22;8269;50.990;4.494;2023-05-10T09:21:53;14.50;99.90
16321;DHT22;8269;50.990;4.494;2023-05-10T09:24:19;14.50;99.90
16321;DHT22;8269;50.990;4.494;2023-05-10T09:26:48;14.50;99.90
16321;DHT22;8269;50.990;4.494;2023-05-10T09:29:14;14.50;99.90
16321;DHT22;8269;50.990;4.494;2023-05-10T09:31:51;14.70;99.90
16321;DHT22;8269;50.990;4.494;2023-05-10T09:34:19;14.80;99.90
16321;DHT22;8269;50.990;4.494;2023-05-10T09:36:52;14.80;99.90
16321;DHT22;8269;50.990;4.494;2023-05-10T09:39:18;14.80;99.90
16321;DHT22;8269;50.990;4.494;2023-05-10T09:41:44;14.90;99.90
16321;DHT22;8269;50.990;4.494;2023-05-10T09:44:10;15.00;99.90
16321;DHT22;8269;50.990;4.494;2023-05-10T09:46:35;15.20;99.90
16321;DHT22;8269;50.990;4.494;2023-05-10T09:49:02;15.20;99.90
16321;DHT22;8269;50.990;4.494;2023-05-10T09:51:27;15.20;99.90
16321;DHT22;8269;50.990;4.494;2023-05-10T09:54:13;15.20;99.90
16321;DHT22;8269;50.990;4.494;2023-05-10T09:56:39;15.20;99.90
16321;DHT22;8269;50.990;4.494;2023-05-10T09:59:10;15.10;99.90
16321;DHT22;8269;50.990;4.494;2023-05-10T10:01:36;15.00;99.90
16321;DHT22;8269;50.990;4.494;2023-05-10T10:04:06;14.60;99.90
16321;DHT22;8269;50.990;4.494;2023-05-10T10:06:37;14.60;99.90
16321;DHT22;8269;50.990;4.494;2023-05-10T10:09:03;14.60;99.90
16321;DHT22;8269;50.990;4.494;2023-05-10T10:11:29;14.60;99.90
16321;DHT22;8269;50.990;4.494;2023-05-10T10:13:55;14.60;99.90
16321;DHT22;8269;50.990;4.494;2023-05-10T10:16:21;14.50;99.90
16321;DHT22;8269;50.990;4.494;2023-05-10T10:18:47;14.50;99.90
16321;DHT22;8269;50.990;4.494;2023-05-10T10:21:14;14.40;99.90
16321;DHT22;8269;50.990;4.494;2023-05-10T10:23:40;14.40;99.90
16321;DHT22;8269;50.990;4.494;2023-05-10T10:26:06;14.40;99.90
16321;DHT22;8269;50.990;4.494;2023-05-10T10:31:51;14.30;99.90
16321;DHT22;8269;50.990;4.494;2023-05-10T10:34:28;14.40;99.90
16321;DHT22;8269;50.990;4.494;2023-05-10T10:36:55;14.40;99.90
16321;DHT22;8269;50.990;4.494;2023-05-10T10:39:22;14.50;99.90
16321;DHT22;8269;50.990;4.494;2023-05-10T10:49:48;14.50;99.90
16321;DHT22;8269;50.990;4.494;2023-05-10T10:57:53;14.80;99.90
16321;DHT22;8269;50.990;4.494;2023-05-10T11:00:38;15.00;99.90
16321;DHT22;8269;50.990;4.494;2023-05-10T11:03:10;15.10;99.90
16321;DHT22;8269;50.990;4.494;2023-05-10T11:05:43;15.10;99.90
16321;DHT22;8269;50.990;4.494;2023-05-10T11:08:31;15.10;99.90
16321;DHT22;8269;50.990;4.494;2023-05-10T11:13:30;14.90;99.90
16321;DHT22;8269;50.990;4.494;2023-05-10T11:15:56;14.90;99.90
16321;DHT22;8269;50.990;4.494;2023-05-10T11:18:31;15.00;99.90
16321;DHT22;8269;50.990;4.494;2023-05-10T11:21:01;15.00;99.90
16321;DHT22;8269;50.990;4.494;2023-05-10T11:26:12;15.10;99.90
16321;DHT22;8269;50.990;4.494;2023-05-10T11:28:42;15.00;99.90
16321;DHT22;8269;50.990;4.494;2023-05-10T11:31:08;14.90;99.90
16321;DHT22;8269;50.990;4.494;2023-05-10T11:33:48;14.90;99.90
16321;DHT22;8269;50.990;4.494;2023-05-10T11:36:16;14.90;99.90
16321;DHT22;8269;50.990;4.494;2023-05-10T11:38:42;15.00;99.90
16321;DHT22;8269;50.990;4.494;2023-05-10T11:41:11;15.00;99.90
16321;DHT22;8269;50.990;4.494;2023-05-10T11:43:40;15.00;99.90
16321;DHT22;8269;50.990;4.494;2023-05-10T11:46:08;15.10;99.90
16321;DHT22;8269;50.990;4.494;2023-05-10T11:48:35;15.20;99.90
16321;DHT22;8269;50.990;4.494;2023-05-10T11:51:01;15.30;99.90
16321;DHT22;8269;50.990;4.494;2023-05-10T11:53:29;15.30;99.90
16321;DHT22;8269;50.990;4.494;2023-05-10T11:55:55;15.20;99.90
16321;DHT22;8269;50.990;4.494;2023-05-10T11:58:21;15.10;99.90
16321;DHT22;8269;50.990;4.494;2023-05-10T12:00:48;15.00;99.90
16321;DHT22;8269;50.990;4.494;2023-05-10T12:03:14;15.00;99.90
16321;DHT22;8269;50.990;4.494;2023-05-10T12:05:41;15.10;99.90
16321;DHT22;8269;50.990;4.494;2023-05-10T12:08:21;15.10;99.90
16321;DHT22;8269;50.990;4.494;2023-05-10T12:10:47;15.20;99.90
16321;DHT22;8269;50.990;4.494;2023-05-10T12:13:14;15.20;99.90
16321;DHT22;8269;50.990;4.494;2023-05-10T12:15:41;15.20;99.90
16321;DHT22;8269;50.990;4.494;2023-05-10T12:18:13;15.20;99.90
16321;DHT22;8269;50.990;4.494;2023-05-10T12:20:40;15.20;99.90
16321;DHT22;8269;50.990;4.494;2023-05-10T12:23:09;15.40;99.90
16321;DHT22;8269;50.990;4.494;2023-05-10T12:25:37;15.40;99.90
16321;DHT22;8269;50.990;4.494;2023-05-10T12:28:05;15.40;99.90
16321;DHT22;8269;50.990;4.494;2023-05-10T12:30:33;15.30;99.90
16321;DHT22;8269;50.990;4.494;2023-05-10T12:33:12;15.30;99.90
16321;DHT22;8269;50.990;4.494;2023-05-10T12:35:47;15.60;99.90
16321;DHT22;8269;50.990;4.494;2023-05-10T12:41:00;15.90;99.90
16321;DHT22;8269;50.990;4.494;2023-05-10T12:43:26;16.00;99.90
16321;DHT22;8269;50.990;4.494;2023-05-10T12:45:52;16.00;99.90
16321;DHT22;8269;50.990;4.494;2023-05-10T12:48:18;16.00;99.90
16321;DHT22;8269;50.990;4.494;2023-05-10T12:50:43;16.00;99.90
16321;DHT22;8269;50.990;4.494;2023-05-10T12:53:09;16.10;99.90
16321;DHT22;8269;50.990;4.494;2023-05-10T12:55:35;16.10;99.90
16321;DHT22;8269;50.990;4.494;2023-05-10T12:58:00;16.10;99.90
16321;DHT22;8269;50.990;4.494;2023-05-10T13:00:26;16.20;99.90
16321;DHT22;8269;50.990;4.494;2023-05-10T13:02:52;16.40;99.90
16321;DHT22;8269;50.990;4.494;2023-05-10T13:05:18;16.50;99.90
16321;DHT22;8269;50.990;4.494;2023-05-10T13:07:44;16.50;99.90
16321;DHT22;8269;50.990;4.494;2023-05-10T13:10:10;16.50;99.90
16321;DHT22;8269;50.990;4.494;2023-05-10T13:12:36;16.70;99.90
16321;DHT22;8269;50.990;4.494;2023-05-10T13:15:02;16.80;99.90
16321;DHT22;8269;50.990;4.494;2023-05-10T13:17:29;16.80;99.90
16321;DHT22;8269;50.990;4.494;2023-05-10T13:19:54;16.90;99.90
16321;DHT22;8269;50.990;4.494;2023-05-10T13:22:20;17.10;99.90
16321;DHT22;8269;50.990;4.494;2023-05-10T13:24:46;17.10;99.90
16321;DHT22;8269;50.990;4.494;2023-05-10T13:27:11;17.10;99.90
16321;DHT22;8269;50.990;4.494;2023-05-10T13:29:37;17.10;99.90
16321;DHT22;8269;50.990;4.494;2023-05-10T13:32:03;17.10;99.90
16321;DHT22;8269;50.990;4.494;2023-05-10T13:34:28;17.30;99.90
16321;DHT22;8269;50.990;4.494;2023-05-10T13:36:54;17.40;99.90
16321;DHT22;8269;50.990;4.494;2023-05-10T13:39:21;17.60;99.90
16321;DHT22;8269;50.990;4.494;2023-05-10T13:41:47;17.70;99.90
16321;DHT22;8269;50.990;4.494;2023-05-10T13:44:14;18.00;99.90
16321;DHT22;8269;50.990;4.494;2023-05-10T13:46:40;18.00;99.90
16321;DHT22;8269;50.990;4.494;2023-05-10T13:49:08;18.00;99.90
16321;DHT22;8269;50.990;4.494;2023-05-10T13:51:34;17.90;99.90
16321;DHT22;8269;50.990;4.494;2023-05-10T13:54:01;17.80;99.90
16321;DHT22;8269;50.990;4.494;2023-05-10T13:56:27;17.80;99.90
16321;DHT22;8269;50.990;4.494;2023-05-10T14:03:45;18.00;99.90
16321;DHT22;8269;50.990;4.494;2023-05-10T14:06:10;18.00;99.90
16321;DHT22;8269;50.990;4.494;2023-05-10T14:08:36;17.90;99.90
16321;DHT22;8269;50.990;4.494;2023-05-10T14:11:02;18.00;99.90
16321;DHT22;8269;50.990;4.494;2023-05-10T14:13:28;17.80;99.90
16321;DHT22;8269;50.990;4.494;2023-05-10T14:15:54;17.90;99.90
16321;DHT22;8269;50.990;4.494;2023-05-10T14:18:21;18.00;99.90
16321;DHT22;8269;50.990;4.494;2023-05-10T14:20:47;17.90;99.90
16321;DHT22;8269;50.990;4.494;2023-05-10T14:23:12;17.80;99.90
16321;DHT22;8269;50.990;4.494;2023-05-10T14:25:40;17.70;99.90
16321;DHT22;8269;50.990;4.494;2023-05-10T14:28:05;17.60;99.90
16321;DHT22;8269;50.990;4.494;2023-05-10T14:30:32;17.50;99.90
16321;DHT22;8269;50.990;4.494;2023-05-10T14:33:00;17.40;99.90
16321;DHT22;8269;50.990;4.494;2023-05-10T14:35:27;17.40;99.90
16321;DHT22;8269;50.990;4.494;2023-05-10T14:37:54;17.50;99.90
16321;DHT22;8269;50.990;4.494;2023-05-10T14:40:19;17.50;99.90
16321;DHT22;8269;50.990;4.494;2023-05-10T14:42:46;17.50;99.90
16321;DHT22;8269;50.990;4.494;2023-05-10T14:45:12;17.40;99.90
16321;DHT22;8269;50.990;4.494;2023-05-10T14:47:38;17.40;99.90
16321;DHT22;8269;50.990;4.494;2023-05-10T14:50:04;17.30;99.90
16321;DHT22;8269;50.990;4.494;2023-05-10T14:52:30;17.20;99.90
16321;DHT22;8269;50.990;4.494;2023-05-10T14:54:55;17.20;99.90
16321;DHT22;8269;50.990;4.494;2023-05-10T14:57:21;17.10;99.90
16321;DHT22;8269;50.990;4.494;2023-05-10T14:59:46;16.90;99.90
16321;DHT22;8269;50.990;4.494;2023-05-10T15:02:13;16.90;99.90
16321;DHT22;8269;50.990;4.494;2023-05-10T15:04:39;16.90;99.90
16321;DHT22;8269;50.990;4.494;2023-05-10T15:07:04;16.90;99.90
16321;DHT22;8269;50.990;4.494;2023-05-10T15:09:31;16.90;99.90
16321;DHT22;8269;50.990;4.494;2023-05-10T15:11:56;16.80;99.90
16321;DHT22;8269;50.990;4.494;2023-05-10T15:14:22;16.70;99.90
16321;DHT22;8269;50.990;4.494;2023-05-10T15:16:48;16.80;99.90
16321;DHT22;8269;50.990;4.494;2023-05-10T15:19:14;16.70;99.90
16321;DHT22;8269;50.990;4.494;2023-05-10T15:21:39;16.70;99.90
16321;DHT22;8269;50.990;4.494;2023-05-10T15:24:08;16.80;99.90
16321;DHT22;8269;50.990;4.494;2023-05-10T15:26:35;16.80;99.90
16321;DHT22;8269;50.990;4.494;2023-05-10T15:29:00;16.80;99.90
16321;DHT22;8269;50.990;4.494;2023-05-10T15:31:26;16.70;99.90
16321;DHT22;8269;50.990;4.494;2023-05-10T15:33:57;16.70;99.90
16321;DHT22;8269;50.990;4.494;2023-05-10T15:36:22;16.70;99.90
16321;DHT22;8269;50.990;4.494;2023-05-10T15:38:48;16.60;99.90
16321;DHT22;8269;50.990;4.494;2023-05-10T15:41:13;16.80;99.90
16321;DHT22;8269;50.990;4.494;2023-05-10T15:43:39;16.80;99.90
16321;DHT22;8269;50.990;4.494;2023-05-10T15:46:05;16.70;99.90
16321;DHT22;8269;50.990;4.494;2023-05-10T15:48:31;16.70;99.90
16321;DHT22;8269;50.990;4.494;2023-05-10T15:50:57;16.70;99.90
16321;DHT22;8269;50.990;4.494;2023-05-10T15:53:23;16.50;99.90
16321;DHT22;8269;50.990;4.494;2023-05-10T15:55:49;16.40;99.90
16321;DHT22;8269;50.990;4.494;2023-05-10T15:58:14;16.30;99.90
16321;DHT22;8269;50.990;4.494;2023-05-10T16:00:40;16.30;99.90
16321;DHT22;8269;50.990;4.494;2023-05-10T16:03:06;16.20;99.90
16321;DHT22;8269;50.990;4.494;2023-05-10T16:05:32;16.10;99.90
16321;DHT22;8269;50.990;4.494;2023-05-10T16:07:58;16.20;99.90
16321;DHT22;8269;50.990;4.494;2023-05-10T16:10:24;16.10;99.90
16321;DHT22;8269;50.990;4.494;2023-05-10T16:12:50;15.90;99.90
16321;DHT22;8269;50.990;4.494;2023-05-10T16:15:16;15.80;99.90
16321;DHT22;8269;50.990;4.494;2023-05-10T16:17:41;15.70;99.90
16321;DHT22;8269;50.990;4.494;2023-05-10T16:20:09;15.50;99.90
16321;DHT22;8269;50.990;4.494;2023-05-10T16:22:35;15.40;99.90
16321;DHT22;8269;50.990;4.494;2023-05-10T16:25:01;15.30;99.90
16321;DHT22;8269;50.990;4.494;2023-05-10T16:27:26;15.20;99.90
16321;DHT22;8269;50.990;4.494;2023-05-10T16:29:54;15.10;99.90
16321;DHT22;8269;50.990;4.494;2023-05-10T16:32:20;14.90;99.90
16321;DHT22;8269;50.990;4.494;2023-05-10T16:34:45;15.00;99.90
16321;DHT22;8269;50.990;4.494;2023-05-10T16:37:11;15.00;99.90
16321;DHT22;8269;50.990;4.494;2023-05-10T16:39:37;15.10;99.90
16321;DHT22;8269;50.990;4.494;2023-05-10T16:42:03;15.20;99.90
16321;DHT22;8269;50.990;4.494;2023-05-10T16:44:28;15.20;99.90
16321;DHT22;8269;50.990;4.494;2023-05-10T16:46:54;15.20;99.90
16321;DHT22;8269;50.990;4.494;2023-05-10T16:49:22;15.30;99.90
16321;DHT22;8269;50.990;4.494;2023-05-10T16:51:48;15.40;99.90
16321;DHT22;8269;50.990;4.494;2023-05-10T16:54:14;15.40;99.90
16321;DHT22;8269;50.990;4.494;2023-05-10T16:56:41;15.40;99.90
16321;DHT22;8269;50.990;4.494;2023-05-10T16:59:07;15.30;99.90
16321;DHT22;8269;50.990;4.494;2023-05-10T17:01:33;15.30;99.90
16321;DHT22;8269;50.990;4.494;2023-05-10T17:03:58;15.30;99.90
16321;DHT22;8269;50.990;4.494;2023-05-10T17:06:24;15.30;99.90
16321;DHT22;8269;50.990;4.494;2023-05-10T17:08:50;15.30;99.90
16321;DHT22;8269;50.990;4.494;2023-05-10T17:11:16;15.40;99.90